createdAt,value
2018-01-21T00:00:17.555Z,27.23
2018-01-21T00:05:20.366Z,27.27
2018-01-21T00:10:23.645Z,26.83
2018-01-21T00:15:26.512Z,24.90
2018-01-21T00:20:30.092Z,26.27
2018-01-21T00:25:32.876Z,25.77
2018-01-21T00:30:35.814Z,28.17
2018-01-21T00:35:38.562Z,29.73
2018-01-21T00:40:42.680Z,27.07
2018-01-21T00:45:45.395Z,28.07
2018-01-21T00:50:49.148Z,29.27
2018-01-21T00:55:51.905Z,26.77
2018-01-21T01:00:55.257Z,29.87
2018-01-21T01:05:58.080Z,29.63
2018-01-21T01:11:01.578Z,31.70
2018-01-21T01:16:04.482Z,31.80
2018-01-21T01:21:08.506Z,31.97
2018-01-21T01:26:11.958Z,30.80
2018-01-21T01:31:15.285Z,30.40
2018-01-21T01:36:17.964Z,31.03
2018-01-21T01:41:21.374Z,31.47
2018-01-21T01:46:24.280Z,31.30
2018-01-21T01:51:27.711Z,31.33
2018-01-21T01:56:30.497Z,31.13
2018-01-21T02:01:33.583Z,28.53
2018-01-21T02:06:37.326Z,26.80
2018-01-21T02:11:40.645Z,27.93
2018-01-21T02:16:43.282Z,30.53
2018-01-21T02:21:46.526Z,29.70
2018-01-21T02:26:49.969Z,29.30
2018-01-21T02:31:53.526Z,31.77
2018-01-21T02:36:56.261Z,37.27
2018-01-21T02:41:59.814Z,37.77
2018-01-21T02:47:02.618Z,39.87
2018-01-21T02:52:05.823Z,41.27
2018-01-21T02:57:09.229Z,42.57
2018-01-21T03:02:13.583Z,43.17
2018-01-21T03:07:16.290Z,41.97
2018-01-21T03:12:19.105Z,40.00
2018-01-21T03:17:21.791Z,41.13
2018-01-21T03:22:24.622Z,38.57
2018-01-21T03:27:27.395Z,39.90
2018-01-21T03:32:30.232Z,42.83
2018-01-21T03:37:33.053Z,39.37
2018-01-21T03:42:35.900Z,41.27
2018-01-21T03:47:38.733Z,40.67
2018-01-21T03:52:42.231Z,38.43
2018-01-21T03:57:45.108Z,39.00
2018-01-21T04:02:49.601Z,37.17
2018-01-21T04:07:52.294Z,35.80
2018-01-21T04:12:55.064Z,35.93
2018-01-21T04:17:58.589Z,35.00
2018-01-21T04:23:02.095Z,37.57
2018-01-21T04:28:05.534Z,36.70
2018-01-21T04:33:08.450Z,37.20
2018-01-21T04:38:11.158Z,37.97
2018-01-21T04:43:13.934Z,38.07
2018-01-21T04:48:17.457Z,38.80
2018-01-21T04:53:20.242Z,37.67
2018-01-21T04:58:23.653Z,36.27
2018-01-21T05:03:26.605Z,37.37
2018-01-21T05:08:29.244Z,35.70
2018-01-21T05:13:32.637Z,40.20
2018-01-21T05:18:35.302Z,37.47
2018-01-21T05:23:39.739Z,38.87
2018-01-21T05:28:42.469Z,39.63
2018-01-21T05:33:45.852Z,36.93
2018-01-21T05:38:48.590Z,38.23
2018-01-21T05:43:52.076Z,38.13
2018-01-21T05:48:54.738Z,35.27
2018-01-21T05:53:58.135Z,33.90
2018-01-21T05:59:00.891Z,31.67
2018-01-21T06:04:04.289Z,32.47
2018-01-21T06:09:07.784Z,32.40
2018-01-21T06:14:11.249Z,32.60
2018-01-21T06:19:14.047Z,33.30
2018-01-21T06:24:17.781Z,31.17
2018-01-21T06:29:20.506Z,31.80
2018-01-21T06:34:23.813Z,34.53
2018-01-21T06:39:26.505Z,32.40
2018-01-21T06:44:30.108Z,32.03
2018-01-21T06:49:32.831Z,31.57
2018-01-21T06:54:36.168Z,32.40
2018-01-21T06:59:38.805Z,30.10
2018-01-21T07:04:42.410Z,32.70
2018-01-21T07:09:46.532Z,31.70
2018-01-21T07:14:49.452Z,33.40
2018-01-21T07:19:56.278Z,30.67
2018-01-21T07:25:00.316Z,31.37
2018-01-21T07:30:03.036Z,32.40
2018-01-21T07:35:06.743Z,31.27
2018-01-21T07:40:09.441Z,32.17
2018-01-21T07:45:13.273Z,30.93
2018-01-21T07:50:15.937Z,32.17
2018-01-21T07:55:20.480Z,32.17
2018-01-21T08:00:24.032Z,31.57
2018-01-21T08:05:27.241Z,33.97
2018-01-21T08:10:29.945Z,34.77
2018-01-21T08:15:33.607Z,32.20
2018-01-21T08:20:37.178Z,38.97
2018-01-21T08:25:41.265Z,36.10
2018-01-21T08:30:43.941Z,37.63
2018-01-21T08:35:52.759Z,38.30
2018-01-21T08:41:01.894Z,36.50
2018-01-21T08:46:06.985Z,36.30
2018-01-21T08:51:09.787Z,36.07
2018-01-21T08:56:13.545Z,36.00
2018-01-21T09:01:17.134Z,34.50
2018-01-21T09:06:20.296Z,36.10
2018-01-21T09:11:22.968Z,37.90
2018-01-21T09:16:25.683Z,39.00
2018-01-21T09:21:28.360Z,37.57
2018-01-21T09:26:32.212Z,38.47
2018-01-21T09:31:34.895Z,37.63
2018-01-21T09:36:38.898Z,34.23
2018-01-21T09:41:41.562Z,58.47
2018-01-21T09:46:44.599Z,33.97
2018-01-21T09:51:47.315Z,34.40
2018-01-21T09:56:50.818Z,32.50
2018-01-21T10:01:53.478Z,32.47
2018-01-21T10:06:56.421Z,33.30
2018-01-21T10:12:02.258Z,30.37
2018-01-21T10:17:05.402Z,31.97
2018-01-21T10:22:08.065Z,29.47
2018-01-21T10:27:11.661Z,28.67
2018-01-21T10:32:14.345Z,28.00
2018-01-21T10:37:17.233Z,27.63
2018-01-21T10:42:19.923Z,29.13
2018-01-21T10:47:23.659Z,30.60
2018-01-21T10:52:26.458Z,30.80
2018-01-21T10:57:29.982Z,30.83
2018-01-21T11:02:32.705Z,28.13
2018-01-21T11:07:36.437Z,27.80
2018-01-21T11:12:39.096Z,27.07
2018-01-21T11:17:43.534Z,28.53
2018-01-21T11:22:47.066Z,28.33
2018-01-21T11:27:50.479Z,27.60
2018-01-21T11:32:53.996Z,26.07
2018-01-21T11:37:58.205Z,30.23
2018-01-21T11:43:01.772Z,26.00
2018-01-21T11:48:04.922Z,28.00
2018-01-21T11:53:07.764Z,25.77
2018-01-21T11:58:12.216Z,26.50
2018-01-21T12:03:15.024Z,27.67
2018-01-21T12:08:18.766Z,25.17
2018-01-21T12:13:21.649Z,28.00
2018-01-21T12:18:24.768Z,27.33
2018-01-21T12:23:27.498Z,26.63
2018-01-21T12:28:30.429Z,24.97
2018-01-21T12:33:33.111Z,24.50
2018-01-21T12:38:36.297Z,24.03
2018-01-21T12:43:39.999Z,23.23
2018-01-21T12:48:43.516Z,23.17
2018-01-21T12:53:46.298Z,24.03
2018-01-21T12:58:50.351Z,22.87
2018-01-21T13:03:53.156Z,22.20
2018-01-21T13:08:55.965Z,23.20
2018-01-21T13:13:58.599Z,22.43
2018-01-21T13:19:01.889Z,24.30
2018-01-21T13:24:04.602Z,23.47
2018-01-21T13:29:07.834Z,25.20
2018-01-21T13:34:10.481Z,23.33
2018-01-21T13:39:13.588Z,22.53
2018-01-21T13:44:16.331Z,21.87
2018-01-21T13:49:19.062Z,25.43
2018-01-21T13:54:22.034Z,26.00
2018-01-21T13:59:25.151Z,26.03
2018-01-21T14:04:27.902Z,24.13
2018-01-21T14:09:31.644Z,21.80
2018-01-21T14:14:34.499Z,22.10
2018-01-21T14:19:38.090Z,22.33
2018-01-21T14:24:40.762Z,20.70
2018-01-21T14:29:44.393Z,22.43
2018-01-21T14:34:47.097Z,22.67
2018-01-21T14:39:50.996Z,22.53
2018-01-21T14:44:54.484Z,20.97
2018-01-21T14:49:57.333Z,23.17
2018-01-21T14:55:00.178Z,22.27
2018-01-21T15:00:03.707Z,21.07
2018-01-21T15:05:06.414Z,22.07
2018-01-21T15:10:09.456Z,21.23
2018-01-21T15:15:12.934Z,21.40
2018-01-21T15:20:16.142Z,21.63
2018-01-21T15:25:19.083Z,20.97
2018-01-21T15:30:22.869Z,22.33
2018-01-21T15:35:26.540Z,25.67
2018-01-21T15:40:30.206Z,24.97
2018-01-21T15:45:32.875Z,24.83
2018-01-21T15:50:36.146Z,23.63
2018-01-21T15:55:39.097Z,26.27
2018-01-21T16:00:42.254Z,24.20
2018-01-21T16:05:45.172Z,23.50
2018-01-21T16:10:48.432Z,27.60
2018-01-21T16:15:51.111Z,26.07
2018-01-21T16:20:55.184Z,24.27
2018-01-21T16:25:58.100Z,25.37
2018-01-21T16:31:01.273Z,27.37
2018-01-21T16:36:03.927Z,24.70
2018-01-21T16:41:06.937Z,21.13
2018-01-21T16:46:09.590Z,21.60
2018-01-21T16:51:13.285Z,23.90
2018-01-21T16:56:16.726Z,22.23
2018-01-21T17:01:19.631Z,19.67
2018-01-21T17:06:28.316Z,19.40
2018-01-21T17:11:31.515Z,21.80
2018-01-21T17:16:34.294Z,21.93
2018-01-21T17:21:37.865Z,22.80
2018-01-21T17:26:40.702Z,17.53
2018-01-21T17:31:44.270Z,19.30
2018-01-21T17:36:47.144Z,20.13
2018-01-21T17:41:50.503Z,22.63
2018-01-21T17:46:53.312Z,20.23
2018-01-21T17:51:56.760Z,22.20
2018-01-21T17:57:00.228Z,21.80
2018-01-21T18:02:03.378Z,17.93
2018-01-21T18:07:06.836Z,19.30
2018-01-21T18:12:10.444Z,17.73
2018-01-21T18:17:13.163Z,31.00
2018-01-21T18:22:16.646Z,30.20
2018-01-21T18:27:20.178Z,30.73
2018-01-21T18:32:23.082Z,34.23
2018-01-21T18:37:25.983Z,31.97
2018-01-21T18:42:28.757Z,33.20
2018-01-21T18:47:32.365Z,34.13
2018-01-21T18:52:35.833Z,33.80
2018-01-21T18:57:38.564Z,34.43
2018-01-21T19:02:42.147Z,30.80
2018-01-21T19:07:44.911Z,31.87
2018-01-21T19:12:47.648Z,24.93
2018-01-21T19:17:50.353Z,25.17
2018-01-21T19:22:53.637Z,23.57
2018-01-21T19:27:57.163Z,25.13
2018-01-21T19:33:00.199Z,23.17
2018-01-21T19:38:02.981Z,25.33
2018-01-21T19:43:12.586Z,26.00
2018-01-21T19:48:15.425Z,27.27
2018-01-21T19:53:18.186Z,25.43
2018-01-21T19:58:20.859Z,23.57
2018-01-21T20:03:24.622Z,22.60
2018-01-21T20:08:27.422Z,23.30
2018-01-21T20:13:30.554Z,25.33
2018-01-21T20:18:33.316Z,53.23
2018-01-21T20:23:36.653Z,25.50
2018-01-21T20:28:39.363Z,24.13
2018-01-21T20:33:42.329Z,24.67
2018-01-21T20:38:45.083Z,27.17
2018-01-21T20:43:48.752Z,26.90
2018-01-21T20:48:51.442Z,21.77
2018-01-21T20:54:01.013Z,25.80
2018-01-21T20:59:03.673Z,25.70
2018-01-21T21:04:07.181Z,24.03
2018-01-21T21:09:09.883Z,21.77
2018-01-21T21:14:13.465Z,24.80
2018-01-21T21:19:16.180Z,23.07
2018-01-21T21:24:19.086Z,21.63
2018-01-21T21:29:21.735Z,21.03
2018-01-21T21:34:24.974Z,22.20
2018-01-21T21:39:27.732Z,18.10
2018-01-21T21:44:30.753Z,18.43
2018-01-21T21:49:33.580Z,16.20
2018-01-21T21:54:37.355Z,20.73
2018-01-21T21:59:40.099Z,17.77
2018-01-21T22:04:43.581Z,19.50
2018-01-21T22:09:46.270Z,18.30
2018-01-21T22:14:49.085Z,18.30
2018-01-21T22:19:51.900Z,18.27
2018-01-21T22:24:55.424Z,17.73
2018-01-21T22:29:58.195Z,18.07
2018-01-21T22:35:01.337Z,17.73
2018-01-21T22:40:04.922Z,17.50
2018-01-21T22:45:08.484Z,16.87
2018-01-21T22:50:11.353Z,17.67
2018-01-21T22:55:25.495Z,19.00
2018-01-21T23:00:33.820Z,19.03
2018-01-21T23:05:36.761Z,18.83
2018-01-21T23:10:40.386Z,19.50
2018-01-21T23:15:43.334Z,19.40
2018-01-21T23:20:58.596Z,19.07
2018-01-21T23:26:01.957Z,19.80
2018-01-21T23:31:04.632Z,19.73
2018-01-21T23:36:09.000Z,20.53
2018-01-21T23:41:11.717Z,19.40
2018-01-21T23:46:15.174Z,22.33
2018-01-21T23:51:17.864Z,22.30
2018-01-21T23:56:21.566Z,22.23
